sensor_id;sensor_type;location;lat;lon;timestamp;P1;durP1;ratioP1;P2;durP2;ratioP2
14849;SDS011;7517;48.400;11.770;2024-02-21T00:00:41;4.13;;;1.67;;
14849;SDS011;7517;48.400;11.770;2024-02-21T00:03:13;2.90;;;1.60;;
14849;SDS011;7517;48.400;11.770;2024-02-21T00:05:41;1.50;;;1.37;;
14849;SDS011;7517;48.400;11.770;2024-02-21T00:08:09;4.70;;;1.70;;
14849;SDS011;7517;48.400;11.770;2024-02-21T00:10:36;2.03;;;1.67;;
14849;SDS011;7517;48.400;11.770;2024-02-21T00:13:03;5.27;;;1.90;;
14849;SDS011;7517;48.400;11.770;2024-02-21T00:15:31;2.80;;;1.50;;
14849;SDS011;7517;48.400;11.770;2024-02-21T00:17:58;2.83;;;1.47;;
14849;SDS011;7517;48.400;11.770;2024-02-21T00:20:29;2.53;;;1.50;;
14849;SDS011;7517;48.400;11.770;2024-02-21T00:22:58;4.20;;;1.73;;
14849;SDS011;7517;48.400;11.770;2024-02-21T00:25:25;3.33;;;1.83;;
14849;SDS011;7517;48.400;11.770;2024-02-21T00:27:53;2.03;;;1.40;;
14849;SDS011;7517;48.400;11.770;2024-02-21T00:30:21;2.43;;;1.50;;
14849;SDS011;7517;48.400;11.770;2024-02-21T00:32:48;2.97;;;1.50;;
14849;SDS011;7517;48.400;11.770;2024-02-21T00:35:17;3.10;;;1.57;;
14849;SDS011;7517;48.400;11.770;2024-02-21T00:37:46;2.77;;;1.30;;
14849;SDS011;7517;48.400;11.770;2024-02-21T00:40:13;2.60;;;1.20;;
14849;SDS011;7517;48.400;11.770;2024-02-21T00:42:45;3.23;;;1.80;;
14849;SDS011;7517;48.400;11.770;2024-02-21T00:45:13;2.10;;;1.60;;
14849;SDS011;7517;48.400;11.770;2024-02-21T00:47:40;3.40;;;1.23;;
14849;SDS011;7517;48.400;11.770;2024-02-21T00:50:09;4.10;;;1.43;;
14849;SDS011;7517;48.400;11.770;2024-02-21T00:52:36;2.30;;;1.50;;
14849;SDS011;7517;48.400;11.770;2024-02-21T00:55:06;4.10;;;1.83;;
14849;SDS011;7517;48.400;11.770;2024-02-21T00:57:36;1.50;;;1.27;;
14849;SDS011;7517;48.400;11.770;2024-02-21T01:00:06;3.10;;;1.43;;
14849;SDS011;7517;48.400;11.770;2024-02-21T01:02:35;3.00;;;1.60;;
14849;SDS011;7517;48.400;11.770;2024-02-21T01:05:02;1.93;;;1.23;;
14849;SDS011;7517;48.400;11.770;2024-02-21T01:07:31;4.33;;;1.90;;
14849;SDS011;7517;48.400;11.770;2024-02-21T01:09:59;2.60;;;1.40;;
14849;SDS011;7517;48.400;11.770;2024-02-21T01:12:28;1.73;;;1.10;;
14849;SDS011;7517;48.400;11.770;2024-02-21T01:14:57;2.43;;;1.33;;
14849;SDS011;7517;48.400;11.770;2024-02-21T01:17:26;2.77;;;1.33;;
14849;SDS011;7517;48.400;11.770;2024-02-21T01:19:53;2.97;;;1.40;;
14849;SDS011;7517;48.400;11.770;2024-02-21T01:22:22;3.43;;;1.40;;
14849;SDS011;7517;48.400;11.770;2024-02-21T01:24:49;2.60;;;1.40;;
14849;SDS011;7517;48.400;11.770;2024-02-21T01:27:17;2.13;;;1.60;;
14849;SDS011;7517;48.400;11.770;2024-02-21T01:29:46;2.60;;;1.53;;
14849;SDS011;7517;48.400;11.770;2024-02-21T01:32:14;2.90;;;1.27;;
14849;SDS011;7517;48.400;11.770;2024-02-21T01:34:43;3.30;;;1.30;;
14849;SDS011;7517;48.400;11.770;2024-02-21T01:37:10;2.80;;;1.40;;
14849;SDS011;7517;48.400;11.770;2024-02-21T01:39:38;1.97;;;1.47;;
14849;SDS011;7517;48.400;11.770;2024-02-21T01:42:06;2.57;;;1.40;;
14849;SDS011;7517;48.400;11.770;2024-02-21T01:44:34;2.10;;;1.17;;
14849;SDS011;7517;48.400;11.770;2024-02-21T01:47:04;3.47;;;1.43;;
14849;SDS011;7517;48.400;11.770;2024-02-21T01:49:35;2.60;;;1.53;;
14849;SDS011;7517;48.400;11.770;2024-02-21T01:52:03;4.60;;;1.70;;
14849;SDS011;7517;48.400;11.770;2024-02-21T01:54:31;1.90;;;1.23;;
14849;SDS011;7517;48.400;11.770;2024-02-21T01:56:59;2.53;;;1.10;;
14849;SDS011;7517;48.400;11.770;2024-02-21T01:59:29;2.07;;;1.27;;
14849;SDS011;7517;48.400;11.770;2024-02-21T02:01:57;1.80;;;1.07;;
14849;SDS011;7517;48.400;11.770;2024-02-21T02:04:30;3.23;;;1.50;;
14849;SDS011;7517;48.400;11.770;2024-02-21T02:06:59;1.73;;;1.10;;
14849;SDS011;7517;48.400;11.770;2024-02-21T02:09:30;2.57;;;1.10;;
14849;SDS011;7517;48.400;11.770;2024-02-21T02:11:59;2.73;;;1.43;;
14849;SDS011;7517;48.400;11.770;2024-02-21T02:14:28;2.67;;;1.10;;
14849;SDS011;7517;48.400;11.770;2024-02-21T02:16:56;2.90;;;1.37;;
14849;SDS011;7517;48.400;11.770;2024-02-21T02:19:24;2.50;;;1.27;;
14849;SDS011;7517;48.400;11.770;2024-02-21T02:21:53;6.77;;;1.13;;
14849;SDS011;7517;48.400;11.770;2024-02-21T02:24:31;2.50;;;1.50;;
14849;SDS011;7517;48.400;11.770;2024-02-21T02:26:59;2.23;;;1.00;;
14849;SDS011;7517;48.400;11.770;2024-02-21T02:29:25;3.80;;;1.30;;
14849;SDS011;7517;48.400;11.770;2024-02-21T02:31:53;1.43;;;1.20;;
14849;SDS011;7517;48.400;11.770;2024-02-21T02:34:21;2.03;;;0.90;;
14849;SDS011;7517;48.400;11.770;2024-02-21T02:36:50;1.93;;;1.20;;
14849;SDS011;7517;48.400;11.770;2024-02-21T02:39:17;2.07;;;1.40;;
14849;SDS011;7517;48.400;11.770;2024-02-21T02:41:47;2.77;;;0.90;;
14849;SDS011;7517;48.400;11.770;2024-02-21T02:44:14;2.43;;;1.00;;
14849;SDS011;7517;48.400;11.770;2024-02-21T02:46:42;2.37;;;1.17;;
14849;SDS011;7517;48.400;11.770;2024-02-21T02:49:10;4.13;;;1.37;;
14849;SDS011;7517;48.400;11.770;2024-02-21T02:51:40;2.63;;;1.20;;
14849;SDS011;7517;48.400;11.770;2024-02-21T02:54:09;1.33;;;1.00;;
14849;SDS011;7517;48.400;11.770;2024-02-21T02:56:37;1.83;;;1.20;;
14849;SDS011;7517;48.400;11.770;2024-02-21T02:59:10;4.83;;;0.97;;
14849;SDS011;7517;48.400;11.770;2024-02-21T03:01:37;1.20;;;1.00;;
14849;SDS011;7517;48.400;11.770;2024-02-21T03:04:08;2.17;;;1.40;;
14849;SDS011;7517;48.400;11.770;2024-02-21T03:06:36;1.13;;;1.03;;
14849;SDS011;7517;48.400;11.770;2024-02-21T03:09:05;3.00;;;1.40;;
14849;SDS011;7517;48.400;11.770;2024-02-21T03:11:33;2.80;;;1.13;;
14849;SDS011;7517;48.400;11.770;2024-02-21T03:14:06;1.40;;;1.03;;
14849;SDS011;7517;48.400;11.770;2024-02-21T03:16:37;1.80;;;1.17;;
14849;SDS011;7517;48.400;11.770;2024-02-21T03:19:05;2.17;;;1.10;;
14849;SDS011;7517;48.400;11.770;2024-02-21T03:21:33;2.20;;;1.30;;
14849;SDS011;7517;48.400;11.770;2024-02-21T03:24:00;2.30;;;1.20;;
14849;SDS011;7517;48.400;11.770;2024-02-21T03:26:27;2.13;;;1.20;;
14849;SDS011;7517;48.400;11.770;2024-02-21T03:28:55;1.63;;;0.80;;
14849;SDS011;7517;48.400;11.770;2024-02-21T03:31:23;1.73;;;1.00;;
14849;SDS011;7517;48.400;11.770;2024-02-21T03:33:52;1.27;;;0.90;;
14849;SDS011;7517;48.400;11.770;2024-02-21T03:36:19;1.63;;;1.07;;
14849;SDS011;7517;48.400;11.770;2024-02-21T03:38:46;1.23;;;1.00;;
14849;SDS011;7517;48.400;11.770;2024-02-21T03:41:14;2.37;;;0.97;;
14849;SDS011;7517;48.400;11.770;2024-02-21T03:43:41;3.13;;;1.10;;
14849;SDS011;7517;48.400;11.770;2024-02-21T03:46:09;2.87;;;1.10;;
14849;SDS011;7517;48.400;11.770;2024-02-21T03:48:37;1.83;;;1.00;;
14849;SDS011;7517;48.400;11.770;2024-02-21T03:51:06;1.33;;;1.07;;
14849;SDS011;7517;48.400;11.770;2024-02-21T03:53:35;1.43;;;0.80;;
14849;SDS011;7517;48.400;11.770;2024-02-21T03:56:05;1.37;;;0.90;;
14849;SDS011;7517;48.400;11.770;2024-02-21T03:58:32;1.47;;;0.97;;
14849;SDS011;7517;48.400;11.770;2024-02-21T04:01:00;1.80;;;1.07;;
14849;SDS011;7517;48.400;11.770;2024-02-21T04:03:28;2.70;;;1.20;;
14849;SDS011;7517;48.400;11.770;2024-02-21T04:05:57;3.10;;;1.17;;
14849;SDS011;7517;48.400;11.770;2024-02-21T04:08:26;2.17;;;1.00;;
14849;SDS011;7517;48.400;11.770;2024-02-21T04:10:55;1.63;;;1.20;;
14849;SDS011;7517;48.400;11.770;2024-02-21T04:13:25;1.40;;;0.97;;
14849;SDS011;7517;48.400;11.770;2024-02-21T04:15:52;1.60;;;0.87;;
14849;SDS011;7517;48.400;11.770;2024-02-21T04:18:20;1.57;;;1.00;;
14849;SDS011;7517;48.400;11.770;2024-02-21T04:20:48;1.60;;;0.90;;
14849;SDS011;7517;48.400;11.770;2024-02-21T04:23:16;1.73;;;0.90;;
14849;SDS011;7517;48.400;11.770;2024-02-21T04:25:48;1.20;;;0.77;;
14849;SDS011;7517;48.400;11.770;2024-02-21T04:28:15;1.60;;;1.00;;
14849;SDS011;7517;48.400;11.770;2024-02-21T04:30:43;2.70;;;1.17;;
14849;SDS011;7517;48.400;11.770;2024-02-21T04:33:13;1.63;;;0.80;;
14849;SDS011;7517;48.400;11.770;2024-02-21T04:35:40;2.13;;;0.83;;
14849;SDS011;7517;48.400;11.770;2024-02-21T04:38:09;1.17;;;0.90;;
14849;SDS011;7517;48.400;11.770;2024-02-21T04:40:37;2.10;;;0.90;;
14849;SDS011;7517;48.400;11.770;2024-02-21T04:43:06;2.40;;;1.10;;
14849;SDS011;7517;48.400;11.770;2024-02-21T04:45:33;4.60;;;1.50;;
14849;SDS011;7517;48.400;11.770;2024-02-21T04:48:01;2.20;;;1.10;;
14849;SDS011;7517;48.400;11.770;2024-02-21T04:50:28;2.03;;;0.93;;
14849;SDS011;7517;48.400;11.770;2024-02-21T04:52:56;1.57;;;1.00;;
14849;SDS011;7517;48.400;11.770;2024-02-21T04:55:23;2.67;;;1.10;;
14849;SDS011;7517;48.400;11.770;2024-02-21T04:57:51;1.43;;;0.83;;
14849;SDS011;7517;48.400;11.770;2024-02-21T05:00:22;1.27;;;1.17;;
14849;SDS011;7517;48.400;11.770;2024-02-21T05:02:49;1.30;;;1.00;;
14849;SDS011;7517;48.400;11.770;2024-02-21T05:05:18;3.80;;;1.50;;
14849;SDS011;7517;48.400;11.770;2024-02-21T05:07:45;3.73;;;1.30;;
14849;SDS011;7517;48.400;11.770;2024-02-21T05:10:13;3.30;;;1.23;;
14849;SDS011;7517;48.400;11.770;2024-02-21T05:12:42;1.10;;;0.93;;
14849;SDS011;7517;48.400;11.770;2024-02-21T05:15:10;1.13;;;0.77;;
14849;SDS011;7517;48.400;11.770;2024-02-21T05:17:40;1.37;;;1.00;;
14849;SDS011;7517;48.400;11.770;2024-02-21T05:20:08;2.90;;;0.87;;
14849;SDS011;7517;48.400;11.770;2024-02-21T05:22:38;1.53;;;0.90;;
14849;SDS011;7517;48.400;11.770;2024-02-21T05:25:06;2.40;;;0.90;;
14849;SDS011;7517;48.400;11.770;2024-02-21T05:27:35;1.10;;;0.87;;
14849;SDS011;7517;48.400;11.770;2024-02-21T05:30:04;4.00;;;1.43;;
14849;SDS011;7517;48.400;11.770;2024-02-21T05:32:36;1.50;;;0.83;;
14849;SDS011;7517;48.400;11.770;2024-02-21T05:35:05;1.70;;;1.30;;
14849;SDS011;7517;48.400;11.770;2024-02-21T05:37:35;1.27;;;1.10;;
14849;SDS011;7517;48.400;11.770;2024-02-21T05:40:02;1.17;;;0.90;;
14849;SDS011;7517;48.400;11.770;2024-02-21T05:42:30;1.47;;;1.37;;
14849;SDS011;7517;48.400;11.770;2024-02-21T05:44:59;2.37;;;1.33;;
14849;SDS011;7517;48.400;11.770;2024-02-21T05:47:26;1.87;;;1.50;;
14849;SDS011;7517;48.400;11.770;2024-02-21T05:49:54;2.13;;;1.10;;
14849;SDS011;7517;48.400;11.770;2024-02-21T05:52:22;1.80;;;1.10;;
14849;SDS011;7517;48.400;11.770;2024-02-21T05:54:50;1.17;;;0.87;;
14849;SDS011;7517;48.400;11.770;2024-02-21T05:57:19;2.60;;;1.37;;
14849;SDS011;7517;48.400;11.770;2024-02-21T05:59:51;1.53;;;0.97;;
14849;SDS011;7517;48.400;11.770;2024-02-21T06:02:21;1.23;;;1.07;;
14849;SDS011;7517;48.400;11.770;2024-02-21T06:04:48;1.50;;;0.97;;
14849;SDS011;7517;48.400;11.770;2024-02-21T06:07:18;1.13;;;1.00;;
14849;SDS011;7517;48.400;11.770;2024-02-21T06:09:47;2.87;;;0.90;;
14849;SDS011;7517;48.400;11.770;2024-02-21T06:12:15;2.20;;;1.20;;
14849;SDS011;7517;48.400;11.770;2024-02-21T06:14:42;2.87;;;0.97;;
14849;SDS011;7517;48.400;11.770;2024-02-21T06:17:10;0.90;;;0.60;;
14849;SDS011;7517;48.400;11.770;2024-02-21T06:19:39;2.47;;;1.30;;
14849;SDS011;7517;48.400;11.770;2024-02-21T06:22:08;1.20;;;1.10;;
14849;SDS011;7517;48.400;11.770;2024-02-21T06:24:35;1.47;;;1.00;;
14849;SDS011;7517;48.400;11.770;2024-02-21T06:27:04;2.40;;;1.03;;
14849;SDS011;7517;48.400;11.770;2024-02-21T06:29:32;1.00;;;0.80;;
14849;SDS011;7517;48.400;11.770;2024-02-21T06:32:00;1.60;;;0.90;;
14849;SDS011;7517;48.400;11.770;2024-02-21T06:34:28;1.30;;;0.93;;
14849;SDS011;7517;48.400;11.770;2024-02-21T06:36:55;1.00;;;0.90;;
14849;SDS011;7517;48.400;11.770;2024-02-21T06:39:22;1.70;;;1.10;;
14849;SDS011;7517;48.400;11.770;2024-02-21T06:41:49;1.77;;;0.93;;
14849;SDS011;7517;48.400;11.770;2024-02-21T06:44:20;1.77;;;1.20;;
14849;SDS011;7517;48.400;11.770;2024-02-21T06:46:48;1.23;;;1.13;;
14849;SDS011;7517;48.400;11.770;2024-02-21T06:49:17;2.27;;;1.13;;
14849;SDS011;7517;48.400;11.770;2024-02-21T06:51:45;2.13;;;1.27;;
14849;SDS011;7517;48.400;11.770;2024-02-21T06:54:12;2.33;;;1.23;;
14849;SDS011;7517;48.400;11.770;2024-02-21T06:56:40;1.90;;;1.30;;
14849;SDS011;7517;48.400;11.770;2024-02-21T06:59:07;1.50;;;0.93;;
14849;SDS011;7517;48.400;11.770;2024-02-21T07:01:35;1.83;;;1.23;;
14849;SDS011;7517;48.400;11.770;2024-02-21T07:04:03;1.77;;;1.10;;
14849;SDS011;7517;48.400;11.770;2024-02-21T07:06:30;4.40;;;1.77;;
14849;SDS011;7517;48.400;11.770;2024-02-21T07:08:57;2.50;;;1.10;;
14849;SDS011;7517;48.400;11.770;2024-02-21T07:11:24;1.63;;;0.90;;
14849;SDS011;7517;48.400;11.770;2024-02-21T07:13:52;1.10;;;1.00;;
14849;SDS011;7517;48.400;11.770;2024-02-21T07:16:19;1.27;;;0.90;;
14849;SDS011;7517;48.400;11.770;2024-02-21T07:18:47;0.90;;;0.70;;
14849;SDS011;7517;48.400;11.770;2024-02-21T07:21:14;1.23;;;0.80;;
14849;SDS011;7517;48.400;11.770;2024-02-21T07:23:42;0.70;;;0.60;;
14849;SDS011;7517;48.400;11.770;2024-02-21T07:26:09;2.53;;;1.40;;
14849;SDS011;7517;48.400;11.770;2024-02-21T07:28:36;2.47;;;0.77;;
14849;SDS011;7517;48.400;11.770;2024-02-21T07:31:03;1.17;;;0.60;;
14849;SDS011;7517;48.400;11.770;2024-02-21T07:33:30;1.63;;;0.73;;
14849;SDS011;7517;48.400;11.770;2024-02-21T07:35:59;0.63;;;0.60;;
14849;SDS011;7517;48.400;11.770;2024-02-21T07:38:26;1.17;;;0.70;;
14849;SDS011;7517;48.400;11.770;2024-02-21T07:40:53;1.07;;;0.70;;
14849;SDS011;7517;48.400;11.770;2024-02-21T07:43:21;1.17;;;0.60;;
14849;SDS011;7517;48.400;11.770;2024-02-21T07:45:48;1.20;;;0.60;;
14849;SDS011;7517;48.400;11.770;2024-02-21T07:48:15;1.10;;;0.40;;
14849;SDS011;7517;48.400;11.770;2024-02-21T07:50:44;0.63;;;0.53;;
14849;SDS011;7517;48.400;11.770;2024-02-21T07:53:12;1.17;;;0.53;;
14849;SDS011;7517;48.400;11.770;2024-02-21T07:55:41;0.40;;;0.40;;
14849;SDS011;7517;48.400;11.770;2024-02-21T07:58:08;1.67;;;0.67;;
14849;SDS011;7517;48.400;11.770;2024-02-21T08:00:35;1.57;;;0.70;;
14849;SDS011;7517;48.400;11.770;2024-02-21T08:03:03;1.13;;;0.60;;
14849;SDS011;7517;48.400;11.770;2024-02-21T08:05:30;0.77;;;0.53;;
14849;SDS011;7517;48.400;11.770;2024-02-21T08:08:01;0.77;;;0.50;;
14849;SDS011;7517;48.400;11.770;2024-02-21T08:10:30;0.80;;;0.53;;
14849;SDS011;7517;48.400;11.770;2024-02-21T08:12:57;1.73;;;0.53;;
14849;SDS011;7517;48.400;11.770;2024-02-21T08:15:24;1.00;;;0.73;;
14849;SDS011;7517;48.400;11.770;2024-02-21T08:17:54;0.87;;;0.73;;
14849;SDS011;7517;48.400;11.770;2024-02-21T08:20:24;1.80;;;0.80;;
14849;SDS011;7517;48.400;11.770;2024-02-21T08:22:52;1.33;;;0.80;;
14849;SDS011;7517;48.400;11.770;2024-02-21T08:25:19;0.53;;;0.53;;
14849;SDS011;7517;48.400;11.770;2024-02-21T08:27:47;1.20;;;0.73;;
14849;SDS011;7517;48.400;11.770;2024-02-21T08:30:16;1.60;;;0.80;;
14849;SDS011;7517;48.400;11.770;2024-02-21T08:32:45;0.80;;;0.80;;
14849;SDS011;7517;48.400;11.770;2024-02-21T08:35:12;2.17;;;1.47;;
14849;SDS011;7517;48.400;11.770;2024-02-21T08:37:39;0.83;;;0.83;;
14849;SDS011;7517;48.400;11.770;2024-02-21T08:40:08;1.13;;;0.63;;
14849;SDS011;7517;48.400;11.770;2024-02-21T08:42:38;2.30;;;1.03;;
14849;SDS011;7517;48.400;11.770;2024-02-21T08:45:08;1.17;;;0.70;;
14849;SDS011;7517;48.400;11.770;2024-02-21T08:47:39;0.90;;;0.70;;
14849;SDS011;7517;48.400;11.770;2024-02-21T08:50:06;1.00;;;0.90;;
14849;SDS011;7517;48.400;11.770;2024-02-21T08:52:35;1.73;;;1.07;;
14849;SDS011;7517;48.400;11.770;2024-02-21T08:55:03;0.93;;;0.50;;
14849;SDS011;7517;48.400;11.770;2024-02-21T08:57:31;1.00;;;0.60;;
14849;SDS011;7517;48.400;11.770;2024-02-21T09:00:02;1.17;;;0.67;;
14849;SDS011;7517;48.400;11.770;2024-02-21T09:02:37;1.60;;;0.73;;
14849;SDS011;7517;48.400;11.770;2024-02-21T09:05:10;1.00;;;0.70;;
14849;SDS011;7517;48.400;11.770;2024-02-21T09:07:38;1.50;;;1.00;;
14849;SDS011;7517;48.400;11.770;2024-02-21T09:10:08;0.90;;;0.70;;
14849;SDS011;7517;48.400;11.770;2024-02-21T09:12:40;1.70;;;0.80;;
14849;SDS011;7517;48.400;11.770;2024-02-21T09:15:08;0.63;;;0.50;;
14849;SDS011;7517;48.400;11.770;2024-02-21T09:17:41;0.60;;;0.60;;
14849;SDS011;7517;48.400;11.770;2024-02-21T09:20:09;2.83;;;1.20;;
14849;SDS011;7517;48.400;11.770;2024-02-21T09:22:41;2.60;;;1.13;;
14849;SDS011;7517;48.400;11.770;2024-02-21T09:25:11;1.00;;;0.77;;
14849;SDS011;7517;48.400;11.770;2024-02-21T09:27:40;0.87;;;0.80;;
14849;SDS011;7517;48.400;11.770;2024-02-21T09:30:07;0.80;;;0.60;;
14849;SDS011;7517;48.400;11.770;2024-02-21T09:32:35;0.73;;;0.50;;
14849;SDS011;7517;48.400;11.770;2024-02-21T09:35:04;1.47;;;0.53;;
14849;SDS011;7517;48.400;11.770;2024-02-21T09:37:32;0.70;;;0.50;;
14849;SDS011;7517;48.400;11.770;2024-02-21T09:39:59;1.60;;;0.60;;
14849;SDS011;7517;48.400;11.770;2024-02-21T09:42:28;2.43;;;0.57;;
14849;SDS011;7517;48.400;11.770;2024-02-21T09:45:04;0.67;;;0.50;;
14849;SDS011;7517;48.400;11.770;2024-02-21T09:47:40;0.77;;;0.50;;
14849;SDS011;7517;48.400;11.770;2024-02-21T09:50:22;0.47;;;0.47;;
14849;SDS011;7517;48.400;11.770;2024-02-21T09:52:51;0.80;;;0.70;;
14849;SDS011;7517;48.400;11.770;2024-02-21T09:55:20;0.93;;;0.83;;
14849;SDS011;7517;48.400;11.770;2024-02-21T09:57:49;0.67;;;0.40;;
14849;SDS011;7517;48.400;11.770;2024-02-21T10:00:18;1.23;;;0.50;;
14849;SDS011;7517;48.400;11.770;2024-02-21T10:02:47;0.70;;;0.60;;
14849;SDS011;7517;48.400;11.770;2024-02-21T10:05:15;0.47;;;0.37;;
14849;SDS011;7517;48.400;11.770;2024-02-21T10:07:45;0.50;;;0.40;;
14849;SDS011;7517;48.400;11.770;2024-02-21T10:10:13;0.83;;;0.43;;
14849;SDS011;7517;48.400;11.770;2024-02-21T10:12:50;1.27;;;0.40;;
14849;SDS011;7517;48.400;11.770;2024-02-21T10:15:20;1.43;;;0.50;;
14849;SDS011;7517;48.400;11.770;2024-02-21T10:17:48;1.63;;;0.90;;
14849;SDS011;7517;48.400;11.770;2024-02-21T10:20:30;4.10;;;1.00;;
14849;SDS011;7517;48.400;11.770;2024-02-21T10:23:01;0.67;;;0.40;;
14849;SDS011;7517;48.400;11.770;2024-02-21T10:25:33;0.73;;;0.30;;
14849;SDS011;7517;48.400;11.770;2024-02-21T10:28:11;0.83;;;0.40;;
14849;SDS011;7517;48.400;11.770;2024-02-21T10:30:49;0.67;;;0.40;;
14849;SDS011;7517;48.400;11.770;2024-02-21T10:33:17;0.80;;;0.50;;
14849;SDS011;7517;48.400;11.770;2024-02-21T10:35:46;1.07;;;0.60;;
14849;SDS011;7517;48.400;11.770;2024-02-21T10:38:16;0.43;;;0.40;;
14849;SDS011;7517;48.400;11.770;2024-02-21T10:40:43;0.77;;;0.47;;
14849;SDS011;7517;48.400;11.770;2024-02-21T10:43:14;1.73;;;0.50;;
14849;SDS011;7517;48.400;11.770;2024-02-21T10:45:44;0.67;;;0.67;;
14849;SDS011;7517;48.400;11.770;2024-02-21T10:48:14;0.40;;;0.40;;
14849;SDS011;7517;48.400;11.770;2024-02-21T10:50:46;0.77;;;0.43;;
14849;SDS011;7517;48.400;11.770;2024-02-21T10:53:29;1.53;;;0.40;;
14849;SDS011;7517;48.400;11.770;2024-02-21T10:56:10;0.40;;;0.40;;
14849;SDS011;7517;48.400;11.770;2024-02-21T10:58:55;0.47;;;0.30;;
14849;SDS011;7517;48.400;11.770;2024-02-21T11:01:28;0.77;;;0.60;;
14849;SDS011;7517;48.400;11.770;2024-02-21T11:04:00;0.90;;;0.40;;
14849;SDS011;7517;48.400;11.770;2024-02-21T11:06:30;1.27;;;0.57;;
14849;SDS011;7517;48.400;11.770;2024-02-21T11:09:30;1.40;;;0.40;;
14849;SDS011;7517;48.400;11.770;2024-02-21T11:12:20;0.53;;;0.43;;
14849;SDS011;7517;48.400;11.770;2024-02-21T11:15:03;1.37;;;0.60;;
14849;SDS011;7517;48.400;11.770;2024-02-21T11:17:33;0.60;;;0.50;;
14849;SDS011;7517;48.400;11.770;2024-02-21T11:20:10;1.10;;;0.77;;
14849;SDS011;7517;48.400;11.770;2024-02-21T11:22:41;1.00;;;0.30;;
14849;SDS011;7517;48.400;11.770;2024-02-21T11:25:11;1.03;;;0.57;;
14849;SDS011;7517;48.400;11.770;2024-02-21T11:28:01;0.70;;;0.50;;
14849;SDS011;7517;48.400;11.770;2024-02-21T11:30:32;0.40;;;0.40;;
14849;SDS011;7517;48.400;11.770;2024-02-21T11:33:03;0.97;;;0.67;;
14849;SDS011;7517;48.400;11.770;2024-02-21T11:35:33;0.73;;;0.57;;
14849;SDS011;7517;48.400;11.770;2024-02-21T11:38:08;0.90;;;0.60;;
14849;SDS011;7517;48.400;11.770;2024-02-21T11:40:41;2.30;;;0.90;;
14849;SDS011;7517;48.400;11.770;2024-02-21T11:43:11;0.60;;;0.37;;
14849;SDS011;7517;48.400;11.770;2024-02-21T11:45:38;0.87;;;0.50;;
14849;SDS011;7517;48.400;11.770;2024-02-21T11:48:06;0.97;;;0.40;;
14849;SDS011;7517;48.400;11.770;2024-02-21T11:50:34;0.50;;;0.30;;
14849;SDS011;7517;48.400;11.770;2024-02-21T11:53:02;0.50;;;0.40;;
14849;SDS011;7517;48.400;11.770;2024-02-21T11:55:29;0.60;;;0.30;;
14849;SDS011;7517;48.400;11.770;2024-02-21T11:57:58;0.50;;;0.30;;
14849;SDS011;7517;48.400;11.770;2024-02-21T12:00:25;0.30;;;0.20;;
14849;SDS011;7517;48.400;11.770;2024-02-21T12:02:53;0.90;;;0.50;;
14849;SDS011;7517;48.400;11.770;2024-02-21T12:05:27;0.80;;;0.20;;
14849;SDS011;7517;48.400;11.770;2024-02-21T12:07:55;0.57;;;0.20;;
14849;SDS011;7517;48.400;11.770;2024-02-21T12:10:23;0.50;;;0.30;;
14849;SDS011;7517;48.400;11.770;2024-02-21T12:12:52;0.30;;;0.30;;
14849;SDS011;7517;48.400;11.770;2024-02-21T12:17:51;1.23;;;0.30;;
14849;SDS011;7517;48.400;11.770;2024-02-21T12:20:18;0.57;;;0.40;;
14849;SDS011;7517;48.400;11.770;2024-02-21T12:22:49;0.40;;;0.40;;
14849;SDS011;7517;48.400;11.770;2024-02-21T12:25:17;0.50;;;0.33;;
14849;SDS011;7517;48.400;11.770;2024-02-21T12:27:45;1.50;;;0.90;;
14849;SDS011;7517;48.400;11.770;2024-02-21T12:30:15;1.13;;;0.60;;
14849;SDS011;7517;48.400;11.770;2024-02-21T12:32:43;0.60;;;0.30;;
14849;SDS011;7517;48.400;11.770;2024-02-21T12:35:12;1.27;;;0.70;;
14849;SDS011;7517;48.400;11.770;2024-02-21T12:37:41;0.80;;;0.60;;
14849;SDS011;7517;48.400;11.770;2024-02-21T12:40:09;0.90;;;0.57;;
14849;SDS011;7517;48.400;11.770;2024-02-21T12:42:40;0.70;;;0.40;;
14849;SDS011;7517;48.400;11.770;2024-02-21T12:45:07;0.83;;;0.50;;
14849;SDS011;7517;48.400;11.770;2024-02-21T12:47:36;0.50;;;0.43;;
14849;SDS011;7517;48.400;11.770;2024-02-21T12:50:04;0.57;;;0.53;;
14849;SDS011;7517;48.400;11.770;2024-02-21T12:52:33;1.13;;;0.60;;
14849;SDS011;7517;48.400;11.770;2024-02-21T12:55:02;0.47;;;0.40;;
14849;SDS011;7517;48.400;11.770;2024-02-21T12:57:30;0.80;;;0.50;;
14849;SDS011;7517;48.400;11.770;2024-02-21T12:59:59;1.10;;;0.50;;
14849;SDS011;7517;48.400;11.770;2024-02-21T13:02:28;0.87;;;0.40;;
14849;SDS011;7517;48.400;11.770;2024-02-21T13:04:56;1.30;;;0.40;;
14849;SDS011;7517;48.400;11.770;2024-02-21T13:07:25;0.67;;;0.40;;
14849;SDS011;7517;48.400;11.770;2024-02-21T13:09:54;5.40;;;0.43;;
14849;SDS011;7517;48.400;11.770;2024-02-21T13:12:24;0.37;;;0.37;;
14849;SDS011;7517;48.400;11.770;2024-02-21T13:14:52;0.87;;;0.43;;
14849;SDS011;7517;48.400;11.770;2024-02-21T13:17:23;0.53;;;0.20;;
14849;SDS011;7517;48.400;11.770;2024-02-21T13:19:58;0.63;;;0.33;;
14849;SDS011;7517;48.400;11.770;2024-02-21T13:22:25;0.40;;;0.20;;
14849;SDS011;7517;48.400;11.770;2024-02-21T13:24:54;0.83;;;0.30;;
14849;SDS011;7517;48.400;11.770;2024-02-21T13:27:22;0.30;;;0.20;;
14849;SDS011;7517;48.400;11.770;2024-02-21T13:29:50;0.20;;;0.20;;
14849;SDS011;7517;48.400;11.770;2024-02-21T13:32:18;0.43;;;0.40;;
14849;SDS011;7517;48.400;11.770;2024-02-21T13:34:45;0.60;;;0.60;;
14849;SDS011;7517;48.400;11.770;2024-02-21T13:37:14;0.73;;;0.40;;
14849;SDS011;7517;48.400;11.770;2024-02-21T13:39:41;0.30;;;0.20;;
14849;SDS011;7517;48.400;11.770;2024-02-21T13:42:13;0.60;;;0.30;;
14849;SDS011;7517;48.400;11.770;2024-02-21T13:44:41;0.30;;;0.30;;
14849;SDS011;7517;48.400;11.770;2024-02-21T13:47:11;0.63;;;0.27;;
14849;SDS011;7517;48.400;11.770;2024-02-21T13:49:40;0.27;;;0.20;;
14849;SDS011;7517;48.400;11.770;2024-02-21T13:52:08;0.80;;;0.20;;
14849;SDS011;7517;48.400;11.770;2024-02-21T13:54:35;0.10;;;0.10;;
14849;SDS011;7517;48.400;11.770;2024-02-21T13:57:04;0.33;;;0.20;;
14849;SDS011;7517;48.400;11.770;2024-02-21T13:59:33;0.47;;;0.20;;
14849;SDS011;7517;48.400;11.770;2024-02-21T14:02:00;0.10;;;0.10;;
14849;SDS011;7517;48.400;11.770;2024-02-21T14:04:29;0.20;;;0.20;;
14849;SDS011;7517;48.400;11.770;2024-02-21T14:06:57;0.53;;;0.30;;
14849;SDS011;7517;48.400;11.770;2024-02-21T14:09:44;0.37;;;0.20;;
14849;SDS011;7517;48.400;11.770;2024-02-21T14:12:31;0.40;;;0.10;;
14849;SDS011;7517;48.400;11.770;2024-02-21T14:15:20;0.13;;;0.10;;
14849;SDS011;7517;48.400;11.770;2024-02-21T14:18:07;0.10;;;0.10;;
14849;SDS011;7517;48.400;11.770;2024-02-21T14:20:54;0.17;;;0.17;;
14849;SDS011;7517;48.400;11.770;2024-02-21T14:23:41;0.20;;;0.20;;
14849;SDS011;7517;48.400;11.770;2024-02-21T14:26:29;0.20;;;0.10;;
14849;SDS011;7517;48.400;11.770;2024-02-21T14:29:17;0.50;;;0.13;;
14849;SDS011;7517;48.400;11.770;2024-02-21T14:32:06;0.77;;;0.33;;
14849;SDS011;7517;48.400;11.770;2024-02-21T14:34:55;0.37;;;0.27;;
14849;SDS011;7517;48.400;11.770;2024-02-21T14:37:43;0.33;;;0.30;;
14849;SDS011;7517;48.400;11.770;2024-02-21T14:40:33;0.13;;;0.13;;
14849;SDS011;7517;48.400;11.770;2024-02-21T14:43:08;0.33;;;0.20;;
14849;SDS011;7517;48.400;11.770;2024-02-21T14:45:38;0.13;;;0.13;;
14849;SDS011;7517;48.400;11.770;2024-02-21T14:48:09;0.43;;;0.30;;
14849;SDS011;7517;48.400;11.770;2024-02-21T14:50:36;0.10;;;0.10;;
14849;SDS011;7517;48.400;11.770;2024-02-21T14:53:04;0.20;;;0.20;;
14849;SDS011;7517;48.400;11.770;2024-02-21T14:55:37;0.30;;;0.10;;
14849;SDS011;7517;48.400;11.770;2024-02-21T14:58:06;0.10;;;0.10;;
14849;SDS011;7517;48.400;11.770;2024-02-21T15:00:36;0.20;;;0.20;;
14849;SDS011;7517;48.400;11.770;2024-02-21T15:03:04;0.40;;;0.20;;
14849;SDS011;7517;48.400;11.770;2024-02-21T15:05:33;0.20;;;0.20;;